createdAt,value
2018-08-19T00:00:34.921Z,13.03
2018-08-19T00:01:44.408Z,13.23
2018-08-19T00:02:48.097Z,12.97
2018-08-19T00:03:51.726Z,12.67
2018-08-19T00:05:08.578Z,13.13
2018-08-19T00:06:12.160Z,11.87
2018-08-19T00:07:15.708Z,13.83
2018-08-19T00:08:19.217Z,12.63
2018-08-19T00:09:22.756Z,12.30
2018-08-19T00:10:43.085Z,12.80
2018-08-19T00:11:47.135Z,12.83
2018-08-19T00:12:50.662Z,12.10
2018-08-19T00:13:54.196Z,13.77
2018-08-19T00:14:57.753Z,13.20
2018-08-19T00:16:01.326Z,14.60
2018-08-19T00:17:05.545Z,13.50
2018-08-19T00:18:11.185Z,12.33
2018-08-19T00:19:14.798Z,13.73
2018-08-19T00:20:18.464Z,12.17
2018-08-19T00:21:22.044Z,12.23
2018-08-19T00:22:25.651Z,13.27
2018-08-19T00:23:36.961Z,11.93
2018-08-19T00:24:40.452Z,12.60
2018-08-19T00:25:44.539Z,13.03
2018-08-19T00:26:48.409Z,13.13
2018-08-19T00:27:51.981Z,13.67
2018-08-19T00:28:55.526Z,13.00
2018-08-19T00:29:59.081Z,12.60
2018-08-19T00:31:03.572Z,13.30
2018-08-19T00:32:07.877Z,11.90
2018-08-19T00:33:11.794Z,13.30
2018-08-19T00:34:18.734Z,12.67
2018-08-19T00:35:22.401Z,11.60
2018-08-19T00:36:29.848Z,11.70
2018-08-19T00:37:33.459Z,12.73
2018-08-19T00:38:37.018Z,12.00
2018-08-19T00:39:40.617Z,12.43
2018-08-19T00:40:44.504Z,11.90
2018-08-19T00:41:48.709Z,11.70
2018-08-19T00:42:52.277Z,12.23
2018-08-19T00:43:55.897Z,11.83
2018-08-19T00:44:59.489Z,11.73
2018-08-19T00:46:13.009Z,12.47
2018-08-19T00:47:16.510Z,11.90
2018-08-19T00:48:20.077Z,11.67
2018-08-19T00:49:24.131Z,11.87
2018-08-19T00:50:27.738Z,12.30
2018-08-19T00:51:31.333Z,11.60
2018-08-19T00:52:34.981Z,12.87
2018-08-19T00:53:38.585Z,11.87
2018-08-19T00:54:42.133Z,11.53
2018-08-19T00:55:50.280Z,11.10
2018-08-19T00:56:55.860Z,12.40
2018-08-19T00:58:00.390Z,12.50
2018-08-19T00:59:04.717Z,12.80
2018-08-19T01:00:08.312Z,11.70
2018-08-19T01:01:23.097Z,11.77
2018-08-19T01:02:26.721Z,12.50
2018-08-19T01:03:36.257Z,11.80
2018-08-19T01:04:39.849Z,11.60
2018-08-19T01:05:43.501Z,11.60
2018-08-19T01:06:54.121Z,10.93
2018-08-19T01:07:57.763Z,12.37
2018-08-19T01:09:01.361Z,11.50
2018-08-19T01:10:05.059Z,12.17
2018-08-19T01:11:17.389Z,11.70
2018-08-19T01:12:22.453Z,11.00
2018-08-19T01:13:27.191Z,11.87
2018-08-19T01:14:31.083Z,11.27
2018-08-19T01:15:34.717Z,11.43
2018-08-19T01:16:41.428Z,11.17
2018-08-19T01:17:45.790Z,12.20
2018-08-19T01:18:53.511Z,11.90
2018-08-19T01:20:01.298Z,11.20
2018-08-19T01:21:10.758Z,11.93
2018-08-19T01:22:14.431Z,11.20
2018-08-19T01:23:18.018Z,10.37
2018-08-19T01:24:21.953Z,10.57
2018-08-19T01:25:25.622Z,12.00
2018-08-19T01:26:33.113Z,11.57
2018-08-19T01:27:38.380Z,10.70
2018-08-19T01:28:43.877Z,11.50
2018-08-19T01:29:47.462Z,10.13
2018-08-19T01:30:52.031Z,11.53
2018-08-19T01:31:56.175Z,11.83
2018-08-19T01:32:59.671Z,11.00
2018-08-19T01:34:07.999Z,10.67
2018-08-19T01:35:11.570Z,11.70
2018-08-19T01:36:15.146Z,10.57
2018-08-19T01:37:18.735Z,11.70
2018-08-19T01:38:22.229Z,12.00
2018-08-19T01:39:25.787Z,10.60
2018-08-19T01:40:29.316Z,11.50
2018-08-19T01:41:32.912Z,10.87
2018-08-19T01:42:36.923Z,10.80
2018-08-19T01:43:41.965Z,10.27
2018-08-19T01:44:45.430Z,11.10
2018-08-19T01:45:48.915Z,11.00
2018-08-19T01:46:52.468Z,11.50
2018-08-19T01:47:56.139Z,10.13
2018-08-19T01:48:59.977Z,11.40
2018-08-19T01:50:03.950Z,10.57
2018-08-19T01:51:07.432Z,11.03
2018-08-19T01:52:11.113Z,10.53
2018-08-19T01:53:14.612Z,10.87
2018-08-19T01:54:23.073Z,11.20
2018-08-19T01:55:26.702Z,10.53
2018-08-19T01:56:30.245Z,11.37
2018-08-19T01:57:38.968Z,10.60
2018-08-19T01:58:46.330Z,12.03
2018-08-19T01:59:49.802Z,11.20
2018-08-19T02:00:53.328Z,11.10
2018-08-19T02:01:59.424Z,10.87
2018-08-19T02:03:05.204Z,11.23
2018-08-19T02:04:08.791Z,11.10
2018-08-19T02:05:12.476Z,10.77
2018-08-19T02:06:15.979Z,11.37
2018-08-19T02:07:19.464Z,10.23
2018-08-19T02:08:23.035Z,9.67
2018-08-19T02:09:26.614Z,11.50
2018-08-19T02:10:31.416Z,11.10
2018-08-19T02:11:34.962Z,10.63
2018-08-19T02:12:40.065Z,10.40
2018-08-19T02:13:43.653Z,10.57
2018-08-19T02:14:47.197Z,10.80
2018-08-19T02:15:51.610Z,9.80
2018-08-19T02:16:56.047Z,10.80
2018-08-19T02:18:02.008Z,9.87
2018-08-19T02:19:05.697Z,10.93
2018-08-19T02:20:09.189Z,11.27
2018-08-19T02:21:13.361Z,10.50
2018-08-19T02:22:16.970Z,10.23
2018-08-19T02:23:20.654Z,9.10
2018-08-19T02:24:24.265Z,10.37
2018-08-19T02:25:32.273Z,10.63
2018-08-19T02:26:35.947Z,10.20
2018-08-19T02:27:40.093Z,11.50
2018-08-19T02:28:43.616Z,10.43
2018-08-19T02:29:47.246Z,10.27
2018-08-19T02:30:56.167Z,9.80
2018-08-19T02:32:01.889Z,10.53
2018-08-19T02:33:05.393Z,9.30
2018-08-19T02:34:09.128Z,9.30
2018-08-19T02:35:13.972Z,10.10
2018-08-19T02:36:17.468Z,10.53
2018-08-19T02:37:21.069Z,9.87
2018-08-19T02:38:25.154Z,10.20
2018-08-19T02:39:28.941Z,10.33
2018-08-19T02:40:33.483Z,9.87
2018-08-19T02:41:39.068Z,10.13
2018-08-19T02:42:42.670Z,10.13
2018-08-19T02:43:51.336Z,10.20
2018-08-19T02:45:01.112Z,10.40
2018-08-19T02:46:04.643Z,10.30
2018-08-19T02:47:08.223Z,10.00
2018-08-19T02:48:11.806Z,10.33
2018-08-19T02:49:15.280Z,9.63
2018-08-19T02:50:18.785Z,9.60
2018-08-19T02:51:22.310Z,10.40
2018-08-19T02:52:40.471Z,9.30
2018-08-19T02:53:45.319Z,10.23
2018-08-19T02:54:48.916Z,9.70
2018-08-19T02:55:52.375Z,9.47
2018-08-19T02:56:56.005Z,10.20
2018-08-19T02:58:32.424Z,10.03
2018-08-19T02:59:35.937Z,10.67
2018-08-19T03:00:39.479Z,9.60
2018-08-19T03:01:43.033Z,9.63
2018-08-19T03:02:46.767Z,10.67
2018-08-19T03:03:50.841Z,9.87
2018-08-19T03:04:55.306Z,10.57
2018-08-19T03:06:01.133Z,10.30
2018-08-19T03:07:04.819Z,10.10
2018-08-19T03:08:08.366Z,10.60
2018-08-19T03:09:12.306Z,10.00
2018-08-19T03:10:16.641Z,10.10
2018-08-19T03:11:21.717Z,9.83
2018-08-19T03:12:25.252Z,9.47
2018-08-19T03:13:28.762Z,10.03
2018-08-19T03:14:32.209Z,10.30
2018-08-19T03:15:35.704Z,9.67
2018-08-19T03:16:39.197Z,9.77
2018-08-19T03:17:43.829Z,9.43
2018-08-19T03:18:49.428Z,9.83
2018-08-19T03:19:54.876Z,9.90
2018-08-19T03:20:58.346Z,9.80
2018-08-19T03:22:01.985Z,9.00
2018-08-19T03:23:05.602Z,9.40
2018-08-19T03:24:09.168Z,9.00
2018-08-19T03:25:12.788Z,9.57
2018-08-19T03:26:17.341Z,10.20
2018-08-19T03:27:21.286Z,9.00
2018-08-19T03:28:24.868Z,9.60
2018-08-19T03:29:28.354Z,9.80
2018-08-19T03:30:31.830Z,9.53
2018-08-19T03:31:35.300Z,9.90
2018-08-19T03:32:46.431Z,9.50
2018-08-19T03:33:50.003Z,8.97
2018-08-19T03:35:04.616Z,9.73
2018-08-19T03:36:08.939Z,9.50
2018-08-19T03:37:14.666Z,8.80
2018-08-19T03:38:18.140Z,9.17
2018-08-19T03:39:21.755Z,9.23
2018-08-19T03:40:26.901Z,9.23
2018-08-19T03:41:30.440Z,8.50
2018-08-19T03:42:34.098Z,9.30
2018-08-19T03:43:37.693Z,9.20
2018-08-19T03:44:41.231Z,8.43
2018-08-19T03:45:44.848Z,9.53
2018-08-19T03:46:49.362Z,9.57
2018-08-19T03:47:53.436Z,9.00
2018-08-19T03:48:57.002Z,9.77
2018-08-19T03:50:01.731Z,9.60
2018-08-19T03:51:05.246Z,9.23
2018-08-19T03:52:09.609Z,8.83
2018-08-19T03:53:14.697Z,8.93
2018-08-19T03:54:18.197Z,10.10
2018-08-19T03:55:26.605Z,9.10
2018-08-19T03:56:30.142Z,9.37
2018-08-19T03:57:33.597Z,9.93
2018-08-19T03:58:37.177Z,9.40
2018-08-19T03:59:42.866Z,9.60
2018-08-19T04:00:46.364Z,9.80
2018-08-19T04:01:49.829Z,9.27
2018-08-19T04:02:53.357Z,9.23
2018-08-19T04:03:56.937Z,9.37
2018-08-19T04:05:00.505Z,8.73
2018-08-19T04:06:04.150Z,8.73
2018-08-19T04:07:08.192Z,8.70
2018-08-19T04:08:13.150Z,9.20
2018-08-19T04:09:16.648Z,8.33
2018-08-19T04:10:20.715Z,9.17
2018-08-19T04:11:24.199Z,9.30
2018-08-19T04:12:27.789Z,8.80
2018-08-19T04:13:35.905Z,9.27
2018-08-19T04:14:39.417Z,8.50
2018-08-19T04:15:42.993Z,8.80
2018-08-19T04:16:46.485Z,8.93
2018-08-19T04:17:50.207Z,9.60
2018-08-19T04:19:07.463Z,8.63
2018-08-19T04:20:11.035Z,8.23
2018-08-19T04:21:15.865Z,8.53
2018-08-19T04:22:19.351Z,9.10
2018-08-19T04:23:26.476Z,9.03
2018-08-19T04:24:31.072Z,8.93
2018-08-19T04:25:34.629Z,8.90
2018-08-19T04:26:38.691Z,9.67
2018-08-19T04:27:42.234Z,9.17
2018-08-19T04:28:46.450Z,10.00
2018-08-19T04:29:49.905Z,8.73
2018-08-19T04:30:55.140Z,8.20
2018-08-19T04:31:58.709Z,9.07
2018-08-19T04:33:02.217Z,8.63
2018-08-19T04:34:05.724Z,8.50
2018-08-19T04:35:09.197Z,9.40
2018-08-19T04:36:14.117Z,9.23
2018-08-19T04:37:17.600Z,9.00
2018-08-19T04:38:22.223Z,8.80
2018-08-19T04:39:25.848Z,8.03
2018-08-19T04:40:29.429Z,8.83
2018-08-19T04:41:34.104Z,8.80
2018-08-19T04:42:37.693Z,9.50
2018-08-19T04:43:41.301Z,8.70
2018-08-19T04:44:44.875Z,8.97
2018-08-19T04:45:48.353Z,8.70
2018-08-19T04:46:51.909Z,9.43
2018-08-19T04:47:55.561Z,8.67
2018-08-19T04:48:59.146Z,8.77
2018-08-19T04:50:02.628Z,8.20
2018-08-19T04:51:06.227Z,9.03
2018-08-19T04:52:09.854Z,8.73
2018-08-19T04:53:13.394Z,8.63
2018-08-19T04:54:16.899Z,7.77
2018-08-19T04:55:20.384Z,8.63
2018-08-19T04:56:24.509Z,8.03
2018-08-19T04:57:28.086Z,8.47
2018-08-19T04:58:31.573Z,7.57
2018-08-19T04:59:35.237Z,8.67
2018-08-19T05:00:38.863Z,9.30
2018-08-19T05:01:42.445Z,8.43
2018-08-19T05:02:46.023Z,8.10
2018-08-19T05:03:49.500Z,8.37
2018-08-19T05:04:53.010Z,8.80
2018-08-19T05:05:58.704Z,8.37
2018-08-19T05:07:02.360Z,8.97
2018-08-19T05:08:06.870Z,8.57
2018-08-19T05:09:10.321Z,8.20
2018-08-19T05:10:13.808Z,8.27
2018-08-19T05:11:17.438Z,8.83
2018-08-19T05:12:20.982Z,7.73
2018-08-19T05:13:24.489Z,9.17
2018-08-19T05:14:28.057Z,8.57
2018-08-19T05:15:31.601Z,8.10
2018-08-19T05:16:35.150Z,7.60
2018-08-19T05:17:38.728Z,8.70
2018-08-19T05:18:51.464Z,8.47
2018-08-19T05:20:09.449Z,8.60
2018-08-19T05:21:14.912Z,8.43
2018-08-19T05:22:18.480Z,8.30
2018-08-19T05:23:21.962Z,8.00
2018-08-19T05:24:25.465Z,8.10
2018-08-19T05:25:28.975Z,8.63
2018-08-19T05:26:32.582Z,8.33
2018-08-19T05:27:36.125Z,8.93
2018-08-19T05:28:39.829Z,8.73
2018-08-19T05:29:43.291Z,8.50
2018-08-19T05:30:47.557Z,7.90
2018-08-19T05:31:56.274Z,7.80
2018-08-19T05:33:02.859Z,9.20
2018-08-19T05:34:06.829Z,7.13
2018-08-19T05:35:10.496Z,8.03
2018-08-19T05:36:14.056Z,8.23
2018-08-19T05:37:17.539Z,7.17
2018-08-19T05:38:21.153Z,8.40
2018-08-19T05:39:24.634Z,8.70
2018-08-19T05:40:28.363Z,8.07
2018-08-19T05:41:31.849Z,9.00
2018-08-19T05:42:35.416Z,8.43
2018-08-19T05:43:38.892Z,8.33
2018-08-19T05:44:42.915Z,7.70
2018-08-19T05:45:51.645Z,9.10
2018-08-19T05:46:58.192Z,8.17
2018-08-19T05:48:09.409Z,8.40
2018-08-19T05:49:13.093Z,8.30
2018-08-19T05:50:16.642Z,7.80
2018-08-19T05:51:20.148Z,8.20
2018-08-19T05:52:24.580Z,7.83
2018-08-19T05:53:28.129Z,7.60
2018-08-19T05:54:32.236Z,8.07
2018-08-19T05:55:35.859Z,7.83
2018-08-19T05:56:39.392Z,7.67
2018-08-19T05:57:43.032Z,7.90
2018-08-19T05:58:46.595Z,8.10
2018-08-19T05:59:51.285Z,7.77
2018-08-19T06:00:59.616Z,8.33
2018-08-19T06:02:03.210Z,8.17
2018-08-19T06:03:06.776Z,7.53
2018-08-19T06:04:10.397Z,8.23
2018-08-19T06:05:13.877Z,7.80
2018-08-19T06:06:17.492Z,11.60
2018-08-19T06:07:21.029Z,12.13
2018-08-19T06:08:24.634Z,11.37
2018-08-19T06:09:28.238Z,11.77
2018-08-19T06:10:32.366Z,12.77
2018-08-19T06:11:35.933Z,13.70
2018-08-19T06:12:39.621Z,12.10
2018-08-19T06:13:43.197Z,12.80
2018-08-19T06:14:46.784Z,13.20
2018-08-19T06:15:50.329Z,13.23
2018-08-19T06:16:53.861Z,13.20
2018-08-19T06:17:57.443Z,13.70
2018-08-19T06:19:00.955Z,12.87
2018-08-19T06:20:04.784Z,14.67
2018-08-19T06:21:09.785Z,13.70
2018-08-19T06:22:13.976Z,13.23
2018-08-19T06:23:17.508Z,15.10
2018-08-19T06:24:23.044Z,14.43
2018-08-19T06:25:26.997Z,14.87
2018-08-19T06:26:34.494Z,13.93
2018-08-19T06:28:00.527Z,16.10
2018-08-19T06:29:04.153Z,14.43
2018-08-19T06:30:07.826Z,15.70
2018-08-19T06:31:11.507Z,15.43
2018-08-19T06:32:21.739Z,14.60
2018-08-19T06:33:26.039Z,15.07
2018-08-19T06:34:29.563Z,14.10
2018-08-19T06:35:33.121Z,15.20
2018-08-19T06:36:39.213Z,14.50
2018-08-19T06:37:42.642Z,14.77
2018-08-19T06:38:46.154Z,13.97
2018-08-19T06:39:50.950Z,13.50
2018-08-19T06:40:54.434Z,14.70
2018-08-19T06:41:58.017Z,14.67
2018-08-19T06:43:01.496Z,13.50
2018-08-19T06:44:05.117Z,14.90
2018-08-19T06:45:09.808Z,15.10
2018-08-19T06:46:13.472Z,14.47
2018-08-19T06:47:17.045Z,13.53
2018-08-19T06:48:20.597Z,13.37
2018-08-19T06:49:24.386Z,13.67
2018-08-19T06:50:29.403Z,13.63
2018-08-19T06:51:33.077Z,13.70
2018-08-19T06:52:36.685Z,15.70
2018-08-19T06:53:40.148Z,14.27
2018-08-19T06:54:43.750Z,14.43
2018-08-19T06:55:47.337Z,13.63
2018-08-19T06:56:50.870Z,14.10
2018-08-19T06:57:56.552Z,13.60
2018-08-19T06:59:00.037Z,14.20
2018-08-19T07:00:05.977Z,14.67
2018-08-19T07:01:09.489Z,14.80
2018-08-19T07:02:13.112Z,13.07
2018-08-19T07:03:16.775Z,13.80
2018-08-19T07:04:20.298Z,14.10
2018-08-19T07:05:24.775Z,14.07
2018-08-19T07:06:28.252Z,15.40
2018-08-19T07:31:30.593Z,14.00
2018-08-19T07:32:34.161Z,14.90
2018-08-19T07:33:37.639Z,14.00
2018-08-19T07:34:41.276Z,13.13
2018-08-19T07:35:44.819Z,14.70
2018-08-19T07:36:48.382Z,13.87
2018-08-19T07:37:51.809Z,13.83
2018-08-19T07:38:55.269Z,13.63
2018-08-19T07:39:58.722Z,13.60
2018-08-19T07:41:02.286Z,12.77
2018-08-19T07:42:16.545Z,13.90
2018-08-19T07:43:20.017Z,13.10
2018-08-19T07:44:23.474Z,14.50
2018-08-19T07:45:27.128Z,13.07
2018-08-19T07:46:30.774Z,14.60
2018-08-19T07:47:34.610Z,14.83
2018-08-19T07:48:38.337Z,13.70
2018-08-19T07:49:41.932Z,14.47
2018-08-19T07:50:45.420Z,13.40
2018-08-19T07:51:49.048Z,14.27
2018-08-19T07:52:52.616Z,13.50
2018-08-19T07:53:56.117Z,13.50
2018-08-19T07:54:59.594Z,13.67
2018-08-19T07:56:03.172Z,14.53
2018-08-19T07:57:13.051Z,13.83
2018-08-19T07:58:25.612Z,13.10
2018-08-19T07:59:29.258Z,13.90
2018-08-19T08:00:40.476Z,12.30
2018-08-19T08:01:44.077Z,13.93
2018-08-19T08:02:47.557Z,38.80
2018-08-19T08:03:51.077Z,19.90
2018-08-19T08:04:55.141Z,16.47
2018-08-19T08:05:58.786Z,14.40
2018-08-19T08:07:02.812Z,14.37
2018-08-19T08:08:07.931Z,15.50
2018-08-19T08:09:11.572Z,16.70
2018-08-19T08:10:15.145Z,19.33
2018-08-19T08:11:18.732Z,20.93
2018-08-19T08:12:22.205Z,18.83
2018-08-19T08:13:25.683Z,18.50
2018-08-19T08:14:29.561Z,19.70
2018-08-19T08:15:34.385Z,17.53
2018-08-19T08:16:43.447Z,18.20
2018-08-19T08:17:47.081Z,18.30
2018-08-19T08:18:50.669Z,17.80
2018-08-19T08:19:59.690Z,17.27
2018-08-19T08:21:07.385Z,18.03
2018-08-19T08:22:14.977Z,18.67
2018-08-19T08:23:21.801Z,18.07
2018-08-19T08:24:25.381Z,18.37
2018-08-19T08:25:28.980Z,16.90
2018-08-19T08:26:32.601Z,16.33
2018-08-19T08:27:36.865Z,16.33
2018-08-19T08:28:40.985Z,16.87
2018-08-19T08:29:44.579Z,16.00
2018-08-19T08:30:48.149Z,16.60
2018-08-19T08:31:56.136Z,17.70
2018-08-19T08:32:59.715Z,16.47
2018-08-19T08:34:04.166Z,16.63
2018-08-19T08:35:08.582Z,15.90
2018-08-19T08:36:12.149Z,17.27
2018-08-19T08:37:15.723Z,16.47
2018-08-19T08:38:19.262Z,16.27
2018-08-19T08:39:22.737Z,16.07
2018-08-19T08:40:27.213Z,14.77
2018-08-19T08:41:30.710Z,16.10
2018-08-19T08:42:39.453Z,14.73
2018-08-19T08:43:43.002Z,15.60
2018-08-19T08:44:46.632Z,14.17
2018-08-19T08:45:50.100Z,15.00
2018-08-19T08:46:53.621Z,16.20
2018-08-19T08:47:57.317Z,15.70
2018-08-19T08:49:00.876Z,16.17
2018-08-19T08:50:04.995Z,15.47
2018-08-19T08:51:08.545Z,15.70
2018-08-19T08:52:16.497Z,16.20
2018-08-19T08:53:20.014Z,15.37
2018-08-19T08:54:23.516Z,15.30
2018-08-19T08:55:27.129Z,15.43
2018-08-19T08:56:30.727Z,14.83
2018-08-19T08:57:34.184Z,15.60
2018-08-19T08:58:37.794Z,14.77
2018-08-19T08:59:41.461Z,13.87
2018-08-19T09:00:44.935Z,14.97
2018-08-19T09:01:48.456Z,15.63
2018-08-19T09:02:52.771Z,15.77
2018-08-19T09:03:56.421Z,14.90
2018-08-19T09:05:00.035Z,14.83
2018-08-19T09:06:03.770Z,14.80
2018-08-19T09:07:07.366Z,14.67
2018-08-19T09:08:10.917Z,14.10
2018-08-19T09:09:14.503Z,14.10
2018-08-19T09:10:18.756Z,14.70
2018-08-19T09:11:22.257Z,13.87
2018-08-19T09:12:36.893Z,13.83
2018-08-19T09:13:40.416Z,13.70
2018-08-19T09:14:45.163Z,13.33
2018-08-19T09:15:48.713Z,12.80
2018-08-19T09:16:52.327Z,12.83
2018-08-19T09:17:55.953Z,13.20
2018-08-19T09:18:59.476Z,14.77
2018-08-19T09:20:03.054Z,14.60
2018-08-19T09:21:06.593Z,13.73
2018-08-19T09:22:10.910Z,12.13
2018-08-19T09:23:14.473Z,13.70
2018-08-19T09:24:17.956Z,13.40
2018-08-19T09:25:21.585Z,13.13
2018-08-19T09:26:25.154Z,13.40
2018-08-19T09:27:28.716Z,13.87
2018-08-19T09:28:32.354Z,14.57
2018-08-19T09:29:35.865Z,13.33
2018-08-19T09:30:41.922Z,13.23
2018-08-19T09:31:45.397Z,13.10
2018-08-19T09:32:58.409Z,12.80
2018-08-19T09:34:01.944Z,12.40
2018-08-19T09:35:05.545Z,12.97
2018-08-19T09:36:09.128Z,14.70
2018-08-19T09:37:12.729Z,13.37
2018-08-19T09:38:19.003Z,12.83
2018-08-19T09:39:22.599Z,12.87
2018-08-19T09:40:27.005Z,13.13
2018-08-19T09:41:30.598Z,14.80
2018-08-19T09:42:34.101Z,15.17
2018-08-19T09:43:37.565Z,18.27
2018-08-19T09:44:42.385Z,17.97
2018-08-19T09:45:47.081Z,14.10
2018-08-19T09:46:50.566Z,13.57
2018-08-19T09:47:54.331Z,13.37
2018-08-19T09:48:57.645Z,12.67
2018-08-19T09:50:01.173Z,13.33
2018-08-19T09:51:08.900Z,12.97
2018-08-19T09:52:12.518Z,12.63
2018-08-19T09:53:16.124Z,13.30
2018-08-19T09:54:25.717Z,12.60
2018-08-19T09:55:34.692Z,12.87
2018-08-19T09:56:40.521Z,10.40
2018-08-19T09:57:49.191Z,12.10
2018-08-19T09:58:57.864Z,11.33
2018-08-19T10:00:01.453Z,11.70
2018-08-19T10:01:10.449Z,11.23
2018-08-19T10:02:14.033Z,12.50
2018-08-19T10:03:17.833Z,12.37
2018-08-19T10:04:22.120Z,12.07
2018-08-19T10:05:26.345Z,12.63
2018-08-19T10:06:29.828Z,11.80
2018-08-19T10:07:33.297Z,13.50
2018-08-19T10:08:36.870Z,11.93
2018-08-19T10:09:40.523Z,11.13
2018-08-19T10:10:44.074Z,11.80
2018-08-19T10:11:47.743Z,11.60
2018-08-19T10:12:51.422Z,11.33
2018-08-19T10:13:59.041Z,11.73
2018-08-19T10:15:02.620Z,11.13
2018-08-19T10:16:06.102Z,11.47
2018-08-19T10:17:09.665Z,10.63
2018-08-19T10:18:13.237Z,10.93
2018-08-19T10:19:16.994Z,10.97
2018-08-19T10:20:20.495Z,11.80
2018-08-19T10:21:23.970Z,9.80
2018-08-19T10:22:31.679Z,10.90
2018-08-19T10:23:35.174Z,11.03
2018-08-19T10:24:38.668Z,12.20
2018-08-19T10:25:42.874Z,10.63
2018-08-19T10:26:46.949Z,11.37
2018-08-19T10:27:51.778Z,11.43
2018-08-19T10:28:55.315Z,11.40
2018-08-19T10:29:58.826Z,10.57
2018-08-19T10:31:02.473Z,10.70
2018-08-19T10:32:06.240Z,10.60
2018-08-19T10:33:10.453Z,11.17
2018-08-19T10:34:14.137Z,11.20
2018-08-19T10:35:19.368Z,10.77
2018-08-19T10:36:22.884Z,11.20
2018-08-19T10:37:26.414Z,10.90
2018-08-19T10:38:30.020Z,11.23
2018-08-19T10:39:33.823Z,11.97
2018-08-19T10:40:37.388Z,11.60
2018-08-19T10:41:40.977Z,11.47
2018-08-19T10:42:44.599Z,11.13
2018-08-19T10:43:48.142Z,10.70
2018-08-19T10:44:52.851Z,10.63
2018-08-19T10:45:56.472Z,11.33
2018-08-19T10:47:00.053Z,10.23
2018-08-19T10:48:03.695Z,10.20
2018-08-19T10:49:07.465Z,10.30
2018-08-19T10:50:11.037Z,11.03
2018-08-19T10:51:15.245Z,10.77
2018-08-19T10:52:22.954Z,11.20
2018-08-19T10:53:28.677Z,10.43
2018-08-19T10:54:32.162Z,10.60
2018-08-19T10:55:35.719Z,11.37
2018-08-19T10:56:39.229Z,10.90
2018-08-19T10:57:42.768Z,10.60
2018-08-19T10:58:53.557Z,12.17
2018-08-19T10:59:58.374Z,10.17
2018-08-19T11:01:01.939Z,9.90
2018-08-19T11:02:05.483Z,11.07
2018-08-19T11:03:14.298Z,10.90
2018-08-19T11:04:17.981Z,11.00
2018-08-19T11:05:21.472Z,12.27
2018-08-19T11:06:25.113Z,11.50
2018-08-19T11:07:28.641Z,11.23
2018-08-19T11:08:32.269Z,10.73
2018-08-19T11:09:45.607Z,10.77
2018-08-19T11:10:49.168Z,11.67
2018-08-19T11:11:53.561Z,10.27
2018-08-19T11:12:58.408Z,11.23
2018-08-19T11:14:05.604Z,10.33
2018-08-19T11:15:24.352Z,10.87
2018-08-19T11:16:27.961Z,10.60
2018-08-19T11:17:31.429Z,11.20
2018-08-19T11:18:40.925Z,10.40
2018-08-19T11:19:44.512Z,10.83
2018-08-19T11:20:51.270Z,10.93
2018-08-19T11:21:54.984Z,10.60
2018-08-19T11:23:04.366Z,11.07
2018-08-19T11:24:18.349Z,11.33
2018-08-19T11:25:26.372Z,10.63
2018-08-19T11:26:29.895Z,10.50
2018-08-19T11:27:33.461Z,10.83
2018-08-19T11:28:45.788Z,10.67
2018-08-19T11:29:49.415Z,11.20
2018-08-19T11:30:53.013Z,10.27
2018-08-19T11:31:56.580Z,11.07
2018-08-19T11:33:00.188Z,10.10
2018-08-19T11:34:05.140Z,11.10
2018-08-19T11:35:08.649Z,10.40
2018-08-19T11:36:12.835Z,9.97
2018-08-19T11:37:16.318Z,10.10
2018-08-19T11:38:19.888Z,10.00
2018-08-19T11:39:29.275Z,10.43
2018-08-19T11:40:32.861Z,10.30
2018-08-19T11:41:36.473Z,10.00
2018-08-19T11:42:40.045Z,10.57
2018-08-19T11:43:44.869Z,10.20
2018-08-19T11:44:48.437Z,10.57
2018-08-19T11:45:52.030Z,10.17
2018-08-19T11:46:55.649Z,10.00
2018-08-19T11:48:01.885Z,10.70
2018-08-19T11:49:10.510Z,9.90
2018-08-19T11:50:14.121Z,11.07
2018-08-19T11:51:17.642Z,10.23
2018-08-19T11:52:21.287Z,9.73
2018-08-19T11:53:24.838Z,11.20
2018-08-19T11:54:29.049Z,9.40
2018-08-19T11:55:32.557Z,10.10
2018-08-19T11:56:36.037Z,10.20
2018-08-19T11:57:39.617Z,10.20
2018-08-19T11:58:48.153Z,9.03
2018-08-19T11:59:52.352Z,11.13
2018-08-19T12:01:05.314Z,9.27
2018-08-19T12:02:11.624Z,10.33
2018-08-19T12:03:15.151Z,11.17
2018-08-19T12:04:18.758Z,9.83
2018-08-19T12:05:22.327Z,9.83
2018-08-19T12:06:27.436Z,10.10
2018-08-19T12:07:30.978Z,10.20
2018-08-19T12:08:34.414Z,9.60
2018-08-19T12:09:39.829Z,10.33
2018-08-19T12:10:43.325Z,9.20
2018-08-19T12:11:46.877Z,10.20
2018-08-19T12:12:51.334Z,9.63
2018-08-19T12:13:55.205Z,9.43
2018-08-19T12:14:58.734Z,10.00
2018-08-19T12:16:02.244Z,10.03
2018-08-19T12:17:09.214Z,9.73
2018-08-19T12:18:12.674Z,9.80
2018-08-19T12:19:21.355Z,9.37
2018-08-19T12:20:34.049Z,8.87
2018-08-19T12:21:42.846Z,9.80
2018-08-19T12:22:46.593Z,9.43
2018-08-19T12:23:50.828Z,10.70
2018-08-19T12:24:54.621Z,9.50
2018-08-19T12:25:58.214Z,9.90
2018-08-19T12:27:05.012Z,10.03
2018-08-19T12:28:08.513Z,10.00
2018-08-19T12:29:12.499Z,10.00
2018-08-19T12:30:16.435Z,10.77
2018-08-19T12:31:19.997Z,10.43
2018-08-19T12:32:25.837Z,9.47
2018-08-19T12:33:29.998Z,10.83
2018-08-19T12:34:34.835Z,9.70
2018-08-19T12:35:38.402Z,10.17
2018-08-19T12:36:42.004Z,9.83
2018-08-19T12:37:45.754Z,9.80
2018-08-19T12:38:49.282Z,8.93
2018-08-19T12:39:53.394Z,9.40
2018-08-19T12:40:57.020Z,8.80
2018-08-19T12:42:00.601Z,10.53
2018-08-19T12:43:04.480Z,10.07
2018-08-19T12:44:08.533Z,9.07
2018-08-19T12:45:12.170Z,9.10
2018-08-19T12:46:15.762Z,9.57
2018-08-19T12:47:21.818Z,9.87
2018-08-19T12:48:25.301Z,9.70
2018-08-19T12:49:28.981Z,9.30
2018-08-19T12:50:32.521Z,10.00
2018-08-19T12:51:36.062Z,8.40
2018-08-19T12:52:39.787Z,9.70
2018-08-19T12:53:43.359Z,9.63
2018-08-19T12:54:50.901Z,9.93
2018-08-19T12:55:55.276Z,9.63
2018-08-19T12:56:58.862Z,9.67
2018-08-19T12:58:08.307Z,10.00
2018-08-19T12:59:11.852Z,8.77
2018-08-19T13:00:22.393Z,9.70
2018-08-19T13:01:25.997Z,8.33
2018-08-19T13:02:29.596Z,9.50
2018-08-19T13:03:33.136Z,9.70
2018-08-19T13:04:36.576Z,8.50
2018-08-19T13:05:57.364Z,8.37
2018-08-19T13:07:03.966Z,9.73
2018-08-19T13:08:08.118Z,8.70
2018-08-19T13:09:11.598Z,9.00
2018-08-19T13:10:15.436Z,8.90
2018-08-19T13:11:18.908Z,8.70
2018-08-19T13:12:22.559Z,9.80
2018-08-19T13:13:26.054Z,8.90
2018-08-19T13:14:29.762Z,8.10
2018-08-19T13:15:33.347Z,8.27
2018-08-19T13:16:36.825Z,8.53
2018-08-19T13:17:40.299Z,9.43
2018-08-19T13:18:43.836Z,9.37
2018-08-19T13:19:53.506Z,8.50
2018-08-19T13:21:02.281Z,9.20
2018-08-19T13:22:06.045Z,9.23
2018-08-19T13:23:09.656Z,9.53
2018-08-19T13:24:13.297Z,9.97
2018-08-19T13:25:17.541Z,8.73
2018-08-19T13:26:21.164Z,8.63
2018-08-19T13:27:25.192Z,9.30
2018-08-19T13:28:28.831Z,8.63
2018-08-19T13:29:33.240Z,8.40
2018-08-19T13:30:36.821Z,8.43
2018-08-19T13:31:40.388Z,8.57
2018-08-19T13:32:43.880Z,8.50
2018-08-19T13:33:47.488Z,8.53
2018-08-19T13:34:51.803Z,8.33
2018-08-19T13:35:55.390Z,8.70
2018-08-19T13:36:59.194Z,8.47
2018-08-19T13:38:02.756Z,8.53
2018-08-19T13:39:08.469Z,9.40
2018-08-19T13:40:13.161Z,8.80
2018-08-19T13:41:17.202Z,8.90
2018-08-19T13:42:20.821Z,8.67
2018-08-19T13:43:24.302Z,8.13
2018-08-19T13:44:27.796Z,8.70
2018-08-19T13:45:31.408Z,9.00
2018-08-19T13:46:34.788Z,7.90
2018-08-19T13:47:39.069Z,8.37
2018-08-19T13:48:42.552Z,9.30
2018-08-19T13:49:46.068Z,7.93
2018-08-19T13:50:49.656Z,8.40
2018-08-19T13:51:53.367Z,9.27
2018-08-19T13:52:56.913Z,8.90
2018-08-19T13:54:00.416Z,8.33
2018-08-19T13:55:04.850Z,8.50
2018-08-19T13:56:08.368Z,7.80
2018-08-19T13:57:11.865Z,9.10
2018-08-19T13:58:15.496Z,9.13
2018-08-19T13:59:19.068Z,8.10
2018-08-19T14:00:23.953Z,8.30
2018-08-19T14:01:28.365Z,8.70
2018-08-19T14:02:32.009Z,8.63
2018-08-19T14:03:35.586Z,8.57
2018-08-19T14:04:39.063Z,7.83
2018-08-19T14:05:42.555Z,8.20
2018-08-19T14:06:46.185Z,8.60
2018-08-19T14:07:49.697Z,9.00
2018-08-19T14:08:53.846Z,7.70
2018-08-19T14:09:57.465Z,8.30
2018-08-19T14:11:01.004Z,8.30
2018-08-19T14:12:04.561Z,8.33
2018-08-19T14:13:08.101Z,7.90
2018-08-19T14:14:12.130Z,8.20
2018-08-19T14:15:15.697Z,8.53
2018-08-19T14:16:19.263Z,8.13
2018-08-19T14:17:22.885Z,8.37
2018-08-19T14:18:26.468Z,8.80
2018-08-19T14:19:30.050Z,8.37
2018-08-19T14:20:33.537Z,8.20
2018-08-19T14:21:37.017Z,7.23
2018-08-19T14:22:40.501Z,8.00
2018-08-19T14:23:44.133Z,8.33
2018-08-19T14:24:47.685Z,8.00
2018-08-19T14:25:51.187Z,8.27
2018-08-19T14:26:54.653Z,8.37